createdAt,value
2018-07-04T00:03:19.286Z,16.40
2018-07-04T00:05:58.117Z,16.30
2018-07-04T00:08:37.217Z,16.20
2018-07-04T00:11:16.050Z,16.20
2018-07-04T00:13:54.917Z,16.10
2018-07-04T00:16:33.963Z,16.00
2018-07-04T00:19:12.765Z,16.00
2018-07-04T00:21:51.843Z,16.00
2018-07-04T00:24:30.747Z,15.90
2018-07-04T00:27:09.620Z,15.90
2018-07-04T00:29:48.645Z,15.80
2018-07-04T00:32:27.401Z,15.80
2018-07-04T00:35:06.449Z,15.70
2018-07-04T00:37:45.419Z,15.60
2018-07-04T00:40:24.299Z,15.70
2018-07-04T00:43:03.637Z,15.80
2018-07-04T00:45:42.443Z,15.90
2018-07-04T00:48:21.459Z,15.80
2018-07-04T00:51:00.255Z,15.70
2018-07-04T00:53:38.949Z,15.70
2018-07-04T00:56:17.899Z,15.60
2018-07-04T00:58:56.924Z,15.60
2018-07-04T01:01:35.830Z,15.60
2018-07-04T01:04:14.811Z,15.60
2018-07-04T01:06:53.879Z,15.60
2018-07-04T01:09:32.806Z,15.60
2018-07-04T01:12:11.827Z,15.60
2018-07-04T01:14:50.691Z,15.60
2018-07-04T01:17:29.742Z,15.50
2018-07-04T01:20:08.645Z,15.50
2018-07-04T01:22:47.583Z,15.50
2018-07-04T01:25:26.625Z,15.60
2018-07-04T01:28:05.688Z,15.70
2018-07-04T01:30:44.641Z,15.60
2018-07-04T01:33:23.528Z,15.60
2018-07-04T01:36:02.566Z,15.70
2018-07-04T01:38:41.484Z,15.70
2018-07-04T01:41:20.597Z,15.70
2018-07-04T01:43:59.678Z,15.70
2018-07-04T01:46:38.485Z,15.60
2018-07-04T01:49:17.404Z,15.60
2018-07-04T01:51:56.184Z,15.50
2018-07-04T01:54:35.114Z,15.40
2018-07-04T01:57:14.195Z,15.40
2018-07-04T01:59:53.398Z,15.30
2018-07-04T02:02:32.289Z,15.20
2018-07-04T02:05:11.257Z,15.10
2018-07-04T02:07:50.094Z,14.90
2018-07-04T02:10:29.202Z,14.80
2018-07-04T02:13:08.146Z,14.70
2018-07-04T02:15:47.138Z,14.70
2018-07-04T02:18:25.918Z,14.60
2018-07-04T02:21:04.786Z,14.60
2018-07-04T02:23:43.702Z,14.60
2018-07-04T02:26:22.661Z,14.60
2018-07-04T02:29:01.544Z,14.70
2018-07-04T02:31:40.511Z,14.80
2018-07-04T02:34:24.983Z,14.90
2018-07-04T02:37:05.179Z,14.90
2018-07-04T02:39:44.617Z,14.90
2018-07-04T02:42:23.429Z,14.80
2018-07-04T02:45:02.700Z,14.70
2018-07-04T02:47:41.481Z,14.60
2018-07-04T02:50:20.496Z,14.70
2018-07-04T02:52:59.359Z,14.80
2018-07-04T02:55:38.263Z,14.90
2018-07-04T02:58:17.238Z,14.80
2018-07-04T03:00:56.400Z,14.70
2018-07-04T03:03:35.260Z,14.60
2018-07-04T03:06:14.255Z,14.60
2018-07-04T03:08:53.213Z,14.70
2018-07-04T03:11:32.350Z,14.70
2018-07-04T03:14:11.288Z,14.80
2018-07-04T03:16:50.193Z,14.70
2018-07-04T03:19:29.210Z,14.70
2018-07-04T03:22:08.145Z,14.60
2018-07-04T03:24:46.997Z,14.50
2018-07-04T03:27:26.213Z,14.40
2018-07-04T03:30:05.144Z,14.50
2018-07-04T03:32:44.132Z,14.50
2018-07-04T03:35:23.117Z,14.50
2018-07-04T03:38:02.147Z,14.50
2018-07-04T03:40:41.137Z,14.60
2018-07-04T03:43:20.023Z,14.70
2018-07-04T03:45:58.865Z,14.70
2018-07-04T03:48:37.903Z,14.50
2018-07-04T03:51:16.958Z,14.40
2018-07-04T03:53:55.825Z,14.40
2018-07-04T03:56:34.739Z,14.40
2018-07-04T03:59:13.761Z,14.40
2018-07-04T04:01:52.867Z,14.50
2018-07-04T04:04:31.651Z,14.50
2018-07-04T04:07:10.493Z,14.60
2018-07-04T04:09:49.281Z,14.60
2018-07-04T04:12:28.693Z,14.60
2018-07-04T04:15:07.626Z,14.60
2018-07-04T04:20:19.659Z,14.60
2018-07-04T04:22:58.559Z,14.70
2018-07-04T04:25:37.303Z,14.80
2018-07-04T04:30:49.243Z,14.90
2018-07-04T04:33:28.136Z,14.90
2018-07-04T04:36:07.059Z,15.00
2018-07-04T04:41:18.823Z,15.20
2018-07-04T04:43:57.682Z,15.10
2018-07-04T04:46:36.650Z,15.20
2018-07-04T04:49:15.515Z,15.40
2018-07-04T04:51:54.636Z,15.50
2018-07-04T04:54:33.764Z,15.60
2018-07-04T04:57:12.782Z,15.70
2018-07-04T04:59:51.770Z,15.80
2018-07-04T05:02:30.671Z,15.90
2018-07-04T05:05:09.527Z,16.10
2018-07-04T05:07:48.372Z,16.20
2018-07-04T05:13:02.140Z,16.30
2018-07-04T05:15:41.129Z,16.20
2018-07-04T05:18:19.958Z,16.20
2018-07-04T05:20:58.918Z,16.30
2018-07-04T05:23:37.866Z,16.40
2018-07-04T05:26:16.906Z,16.50
2018-07-04T05:28:55.714Z,16.60
2018-07-04T05:31:34.647Z,16.80
2018-07-04T05:34:13.860Z,17.00
2018-07-04T05:36:52.650Z,17.10
2018-07-04T05:39:31.648Z,17.20
2018-07-04T05:42:10.558Z,17.30
2018-07-04T05:44:49.446Z,17.50
2018-07-04T05:47:28.474Z,17.70
2018-07-04T05:50:07.546Z,17.80
2018-07-04T05:52:46.563Z,17.90
2018-07-04T05:55:25.394Z,18.20
2018-07-04T05:58:04.590Z,18.10
2018-07-04T06:00:43.691Z,18.20
2018-07-04T06:03:22.563Z,18.20
2018-07-04T06:06:01.768Z,18.20
2018-07-04T06:08:40.593Z,18.30
2018-07-04T06:11:19.594Z,18.40
2018-07-04T06:13:58.575Z,18.60
2018-07-04T06:16:37.328Z,18.70
2018-07-04T06:19:16.204Z,18.90
2018-07-04T06:21:55.206Z,19.10
2018-07-04T06:24:34.083Z,19.10
2018-07-04T06:27:13.125Z,19.30
2018-07-04T06:29:52.239Z,19.50
2018-07-04T06:32:31.356Z,19.70
2018-07-04T06:35:10.278Z,19.80
2018-07-04T06:37:40.034Z,20.00
2018-07-04T06:40:06.746Z,20.10
2018-07-04T06:42:33.638Z,20.20
2018-07-04T06:45:00.079Z,20.30
2018-07-04T06:47:26.517Z,20.50
2018-07-04T06:49:53.116Z,20.50
2018-07-04T06:52:19.904Z,20.70
2018-07-04T06:54:46.752Z,20.80
2018-07-04T06:57:13.098Z,21.00
2018-07-04T06:59:39.433Z,21.20
2018-07-04T07:02:09.405Z,21.10
2018-07-04T07:04:49.191Z,21.20
2018-07-04T07:07:28.235Z,21.10
2018-07-04T07:10:07.385Z,21.30
2018-07-04T07:12:46.433Z,21.50
2018-07-04T07:15:25.535Z,21.60
2018-07-04T07:18:04.691Z,21.90
2018-07-04T07:20:43.569Z,22.00
2018-07-04T07:23:23.353Z,22.10
2018-07-04T07:26:02.572Z,22.30
2018-07-04T07:28:41.643Z,22.50
2018-07-04T07:31:20.607Z,22.70
2018-07-04T07:33:59.716Z,23.00
2018-07-04T07:36:38.629Z,23.40
2018-07-04T07:39:17.497Z,23.40
2018-07-04T07:41:56.461Z,23.60
2018-07-04T07:44:35.387Z,23.90
2018-07-04T07:47:14.295Z,23.80
2018-07-04T07:49:53.374Z,23.60
2018-07-04T07:52:32.246Z,23.80
2018-07-04T07:55:11.926Z,23.80
2018-07-04T07:57:51.020Z,24.20
2018-07-04T08:00:29.697Z,24.50
2018-07-04T08:03:08.864Z,24.50
2018-07-04T08:05:47.941Z,24.50
2018-07-04T08:08:26.834Z,24.50
2018-07-04T08:11:05.677Z,24.60
2018-07-04T08:13:44.650Z,24.80
2018-07-04T08:16:23.534Z,24.70
2018-07-04T08:19:02.427Z,24.70
2018-07-04T08:21:41.342Z,24.90
2018-07-04T08:24:20.043Z,24.90
2018-07-04T08:26:59.214Z,24.70
2018-07-04T08:29:38.178Z,24.80
2018-07-04T08:32:17.078Z,24.70
2018-07-04T08:34:56.082Z,24.70
2018-07-04T08:37:35.130Z,24.80
2018-07-04T08:40:14.176Z,24.70
2018-07-04T08:42:53.414Z,24.50
2018-07-04T08:45:32.332Z,24.40
2018-07-04T08:48:11.300Z,24.40
2018-07-04T08:50:50.282Z,24.30
2018-07-04T08:53:29.102Z,24.30
2018-07-04T08:56:07.942Z,24.20
2018-07-04T08:58:46.678Z,24.30
2018-07-04T09:01:25.846Z,24.30
2018-07-04T09:04:04.506Z,24.30
2018-07-04T09:09:16.450Z,24.30
2018-07-04T09:11:55.615Z,24.50
2018-07-04T09:14:34.609Z,24.50
2018-07-04T09:17:13.711Z,24.50
2018-07-04T09:19:52.622Z,24.50
2018-07-04T09:22:31.645Z,24.70
2018-07-04T09:25:10.586Z,24.70
2018-07-04T09:27:49.598Z,24.80
2018-07-04T09:30:28.726Z,25.00
2018-07-04T09:33:07.952Z,25.10
2018-07-04T09:35:46.730Z,25.40
2018-07-04T09:38:25.542Z,25.50
2018-07-04T09:41:04.606Z,25.70
2018-07-04T09:43:43.557Z,25.80
2018-07-04T09:46:22.637Z,26.00
2018-07-04T09:49:01.500Z,26.10
2018-07-04T09:51:40.537Z,26.00
2018-07-04T09:54:19.499Z,26.10
2018-07-04T09:56:58.440Z,26.40
2018-07-04T09:59:37.325Z,26.30
2018-07-04T10:02:16.161Z,26.50
2018-07-04T10:04:55.078Z,26.70
2018-07-04T10:07:34.174Z,26.80
2018-07-04T10:10:13.191Z,26.80
2018-07-04T10:12:52.094Z,26.80
2018-07-04T10:15:31.048Z,26.80
2018-07-04T10:18:09.861Z,26.80
2018-07-04T10:20:48.907Z,26.80
2018-07-04T10:23:27.956Z,27.00
2018-07-04T10:26:06.877Z,26.90
2018-07-04T10:28:45.766Z,26.90
2018-07-04T10:31:25.002Z,26.90
2018-07-04T10:34:03.845Z,27.00
2018-07-04T10:36:42.835Z,27.50
2018-07-04T10:39:21.959Z,27.90
2018-07-04T10:42:00.757Z,28.30
2018-07-04T10:44:39.527Z,28.70
2018-07-04T10:47:18.499Z,28.60
2018-07-04T10:49:57.313Z,28.70
2018-07-04T10:52:36.177Z,29.00
2018-07-04T10:55:15.305Z,28.90
2018-07-04T10:57:54.285Z,28.70
2018-07-04T11:00:33.235Z,28.60
2018-07-04T11:03:12.251Z,28.70
2018-07-04T11:05:51.629Z,28.80
2018-07-04T11:08:30.679Z,28.70
2018-07-04T11:11:09.436Z,28.90
2018-07-04T11:13:48.435Z,28.90
2018-07-04T11:16:27.435Z,29.00
2018-07-04T11:19:06.342Z,29.00
2018-07-04T11:21:45.334Z,28.80
2018-07-04T11:24:25.004Z,28.90
2018-07-04T11:27:03.750Z,29.00
2018-07-04T11:29:44.152Z,29.30
2018-07-04T11:32:22.970Z,29.50
2018-07-04T11:35:01.856Z,29.50
2018-07-04T11:37:41.002Z,29.50
2018-07-04T11:42:53.540Z,29.40
2018-07-04T11:45:32.450Z,29.50
2018-07-04T11:47:59.003Z,29.60
2018-07-04T11:50:25.389Z,29.60
2018-07-04T11:52:51.741Z,29.50
2018-07-04T11:55:18.682Z,29.50
2018-07-04T11:57:45.019Z,29.30
2018-07-04T12:00:11.355Z,29.40
2018-07-04T12:02:37.718Z,29.40
2018-07-04T12:05:16.581Z,29.50
2018-07-04T12:07:43.034Z,29.60
2018-07-04T12:12:36.182Z,29.70
2018-07-04T12:15:02.554Z,29.10
2018-07-04T12:17:28.913Z,29.10
2018-07-04T12:19:55.294Z,29.50
2018-07-04T12:24:48.512Z,29.30
2018-07-04T12:27:14.886Z,29.60
2018-07-04T12:29:41.432Z,28.10
2018-07-04T12:32:07.886Z,28.20
2018-07-04T12:34:35.236Z,29.00
2018-07-04T12:37:01.612Z,29.40
2018-07-04T12:39:28.049Z,29.60
2018-07-04T12:41:54.527Z,29.80
2018-07-04T12:44:21.143Z,29.90
2018-07-04T12:46:47.651Z,30.10
2018-07-04T12:49:14.024Z,30.30
2018-07-04T12:54:13.237Z,30.30
2018-07-04T12:56:52.134Z,30.30
2018-07-04T12:59:31.240Z,30.20
2018-07-04T13:02:10.321Z,30.30
2018-07-04T13:04:49.897Z,30.30
2018-07-04T13:07:28.931Z,30.40
2018-07-04T13:10:08.011Z,30.50
2018-07-04T13:12:46.674Z,30.40
2018-07-04T13:15:25.629Z,30.20
2018-07-04T13:18:04.606Z,30.50
2018-07-04T13:20:43.628Z,30.10
2018-07-04T13:23:22.561Z,30.10
2018-07-04T13:26:01.583Z,30.20
2018-07-04T13:28:40.612Z,30.20
2018-07-04T13:31:19.588Z,30.40
2018-07-04T13:33:58.533Z,30.70
2018-07-04T13:36:37.579Z,30.90
2018-07-04T13:39:17.117Z,31.00
2018-07-04T13:41:57.523Z,31.10
2018-07-04T13:44:37.814Z,31.20
2018-07-04T13:47:18.241Z,31.30
2018-07-04T13:49:58.516Z,31.50
2018-07-04T13:52:37.471Z,31.40
2018-07-04T13:55:16.388Z,31.30
2018-07-04T13:57:55.335Z,31.30
2018-07-04T14:00:34.287Z,31.50
2018-07-04T14:03:13.387Z,31.70
2018-07-04T14:05:52.396Z,31.80
2018-07-04T14:08:31.327Z,31.60
2018-07-04T14:11:10.313Z,31.30
2018-07-04T14:13:49.139Z,30.70
2018-07-04T14:16:28.017Z,30.40
2018-07-04T14:19:07.055Z,30.50
2018-07-04T14:21:46.035Z,30.60
2018-07-04T14:24:24.849Z,30.40
2018-07-04T14:27:03.687Z,30.70
2018-07-04T14:29:42.634Z,30.70
2018-07-04T14:32:21.730Z,30.70
2018-07-04T14:35:00.564Z,30.60
2018-07-04T14:37:39.494Z,30.90
2018-07-04T14:40:18.302Z,31.00
2018-07-04T14:42:57.235Z,31.10
2018-07-04T14:45:36.003Z,30.70
2018-07-04T14:48:15.101Z,30.60
2018-07-04T14:50:54.012Z,30.50
2018-07-04T14:53:32.975Z,30.70
2018-07-04T14:56:12.004Z,30.40
2018-07-04T14:58:52.090Z,30.30
2018-07-04T15:01:31.007Z,30.30
2018-07-04T15:04:10.047Z,30.40
2018-07-04T15:06:49.043Z,30.50
2018-07-04T15:09:28.045Z,30.50
2018-07-04T15:12:06.882Z,30.50
2018-07-04T15:14:45.907Z,29.90
2018-07-04T15:17:24.879Z,30.00
2018-07-04T15:20:03.694Z,30.00
2018-07-04T15:22:42.554Z,29.80
2018-07-04T15:25:21.595Z,29.70
2018-07-04T15:28:00.328Z,29.50
2018-07-04T15:30:39.338Z,29.00
2018-07-04T15:33:18.242Z,29.40
2018-07-04T15:35:57.217Z,29.30
2018-07-04T15:38:36.266Z,29.00
2018-07-04T15:41:15.254Z,28.70
2018-07-04T15:43:54.188Z,28.70
2018-07-04T15:46:33.063Z,28.50
2018-07-04T15:49:15.974Z,28.70
2018-07-04T15:51:54.920Z,28.60
2018-07-04T15:54:34.069Z,28.60
2018-07-04T15:57:13.206Z,28.60
2018-07-04T15:59:52.360Z,28.60
2018-07-04T16:02:31.395Z,28.30
2018-07-04T16:05:10.346Z,28.00
2018-07-04T16:07:49.291Z,27.60
2018-07-04T16:10:28.059Z,27.60
2018-07-04T16:13:07.051Z,27.90
2018-07-04T16:15:46.020Z,27.90
2018-07-04T16:18:25.098Z,28.00
2018-07-04T16:21:03.916Z,28.10
2018-07-04T16:23:42.828Z,28.10
2018-07-04T16:26:21.720Z,28.30
2018-07-04T16:29:00.746Z,28.30
2018-07-04T16:31:39.540Z,28.30
2018-07-04T16:34:18.496Z,28.30
2018-07-04T16:36:57.570Z,28.20
2018-07-04T16:39:36.622Z,28.20
2018-07-04T16:42:15.470Z,28.00
2018-07-04T16:44:54.201Z,27.90
2018-07-04T16:47:32.932Z,27.70
2018-07-04T16:50:11.857Z,27.80
2018-07-04T16:52:50.644Z,27.80
2018-07-04T16:55:29.547Z,27.70
2018-07-04T16:58:08.441Z,27.70
2018-07-04T17:00:47.378Z,27.70
2018-07-04T17:03:26.318Z,27.70
2018-07-04T17:06:05.211Z,27.70
2018-07-04T17:08:44.147Z,27.70
2018-07-04T17:11:23.152Z,27.40
2018-07-04T17:14:02.135Z,27.10
2018-07-04T17:16:41.152Z,26.90
2018-07-04T17:19:20.199Z,26.70
2018-07-04T17:21:59.191Z,26.40
2018-07-04T17:24:38.252Z,26.20
2018-07-04T17:27:17.307Z,26.20
2018-07-04T17:29:56.281Z,26.30
2018-07-04T17:32:35.325Z,26.30
2018-07-04T17:35:14.316Z,26.40
2018-07-04T17:37:53.247Z,26.40
2018-07-04T17:40:32.220Z,26.40
2018-07-04T17:43:11.286Z,26.30
2018-07-04T17:45:50.299Z,26.20
2018-07-04T17:48:29.079Z,26.30
2018-07-04T17:51:08.354Z,26.30
2018-07-04T17:57:49.945Z,26.30
2018-07-04T18:00:28.980Z,26.40
2018-07-04T18:05:41.025Z,26.40
2018-07-04T18:08:20.043Z,26.40
2018-07-04T18:10:58.966Z,26.30
2018-07-04T18:13:38.151Z,26.30
2018-07-04T18:16:17.109Z,26.20
2018-07-04T18:21:28.934Z,26.20
2018-07-04T18:24:08.352Z,26.10
2018-07-04T18:26:47.752Z,26.00
2018-07-04T18:29:26.602Z,26.00
2018-07-04T18:32:06.515Z,25.90
2018-07-04T18:34:45.383Z,25.90
2018-07-04T18:37:24.724Z,25.90
2018-07-04T18:40:03.834Z,25.90
2018-07-04T18:42:42.748Z,25.90
2018-07-04T18:45:21.895Z,25.90
2018-07-04T18:48:00.777Z,25.80
2018-07-04T18:50:39.691Z,25.70
2018-07-04T18:53:18.502Z,25.60
2018-07-04T18:55:57.397Z,25.60
2018-07-04T18:58:36.262Z,25.50
2018-07-04T19:01:15.891Z,25.50
2018-07-04T19:03:54.878Z,25.40
2018-07-04T19:06:33.619Z,25.40
2018-07-04T19:09:12.642Z,25.40
2018-07-04T19:11:51.499Z,25.40
2018-07-04T19:14:30.461Z,25.30
2018-07-04T19:17:09.450Z,25.20
2018-07-04T19:19:48.421Z,25.10
2018-07-04T19:22:28.252Z,25.10
2018-07-04T19:25:07.339Z,25.00
2018-07-04T19:27:46.339Z,25.00
2018-07-04T19:30:25.212Z,24.80
2018-07-04T19:33:04.201Z,24.80
2018-07-04T19:35:43.159Z,24.70
2018-07-04T19:38:22.045Z,24.60
2018-07-04T19:41:01.090Z,24.50
2018-07-04T19:43:40.049Z,24.50
2018-07-04T19:46:19.071Z,24.30
2018-07-04T19:48:58.023Z,24.20
2018-07-04T19:51:36.987Z,24.00
2018-07-04T19:54:16.098Z,24.00
2018-07-04T19:56:54.967Z,23.90
2018-07-04T19:59:33.917Z,23.80
2018-07-04T20:02:13.119Z,23.70
2018-07-04T20:04:52.300Z,23.60
2018-07-04T20:07:31.325Z,23.50
2018-07-04T20:10:10.472Z,23.50
2018-07-04T20:12:49.362Z,23.40
2018-07-04T20:15:28.310Z,23.30
2018-07-04T20:18:07.213Z,23.30
2018-07-04T20:20:46.025Z,23.30
2018-07-04T20:23:25.031Z,23.30
2018-07-04T20:26:04.175Z,23.10
2018-07-04T20:28:43.162Z,23.00
2018-07-04T20:31:22.186Z,22.90
2018-07-04T20:34:01.174Z,22.90
2018-07-04T20:36:40.219Z,22.70
2018-07-04T20:39:19.298Z,22.70
2018-07-04T20:41:58.351Z,22.60
2018-07-04T20:44:37.770Z,22.60
2018-07-04T20:47:20.115Z,22.50
2018-07-04T20:49:59.041Z,22.40
2018-07-04T20:52:38.206Z,22.30
2018-07-04T20:55:17.192Z,22.30
2018-07-04T21:00:29.456Z,22.10
2018-07-04T21:03:08.539Z,22.00
2018-07-04T21:05:47.710Z,21.90
2018-07-04T21:08:26.772Z,21.90
2018-07-04T21:11:05.801Z,21.80
2018-07-04T21:13:44.670Z,21.80
2018-07-04T21:16:31.144Z,21.70
2018-07-04T21:19:10.237Z,21.70
2018-07-04T21:21:49.239Z,21.70
2018-07-04T21:24:28.390Z,21.60
2018-07-04T21:27:07.906Z,21.60
2018-07-04T21:29:46.965Z,21.60
2018-07-04T21:32:25.969Z,21.30
2018-07-04T21:35:04.990Z,21.40
2018-07-04T21:37:43.889Z,21.30
2018-07-04T21:40:22.851Z,21.20
2018-07-04T21:43:01.576Z,21.10
2018-07-04T21:45:40.709Z,21.10
2018-07-04T21:48:19.601Z,21.10
2018-07-04T21:50:58.347Z,20.90
2018-07-04T21:53:37.345Z,20.90
2018-07-04T21:56:17.287Z,20.80
2018-07-04T21:58:56.171Z,20.70
2018-07-04T22:01:35.003Z,20.70
2018-07-04T22:04:14.164Z,20.60
2018-07-04T22:06:52.882Z,20.60
2018-07-04T22:09:31.866Z,20.50
2018-07-04T22:12:10.872Z,20.50
2018-07-04T22:14:49.682Z,20.50
2018-07-04T22:17:28.662Z,20.40
2018-07-04T22:20:07.676Z,20.50
2018-07-04T22:22:46.670Z,20.40
2018-07-04T22:25:25.655Z,20.30
2018-07-04T22:28:04.485Z,20.20
2018-07-04T22:30:43.457Z,20.10
2018-07-04T22:33:23.321Z,20.10
2018-07-04T22:36:02.073Z,20.00
2018-07-04T22:38:40.907Z,20.00
2018-07-04T22:41:19.978Z,19.90
2018-07-04T22:43:58.752Z,19.90
2018-07-04T22:46:37.754Z,19.90
2018-07-04T22:49:16.821Z,19.80
2018-07-04T22:51:56.872Z,19.70
2018-07-04T22:54:35.838Z,19.60
2018-07-04T22:57:14.712Z,19.50
2018-07-04T22:59:53.516Z,19.50
2018-07-04T23:02:32.497Z,19.40
2018-07-04T23:05:11.447Z,19.40
2018-07-04T23:07:50.534Z,19.30
2018-07-04T23:10:29.496Z,19.10
2018-07-04T23:13:08.492Z,19.20
2018-07-04T23:15:47.488Z,19.30
2018-07-04T23:18:26.618Z,19.30
2018-07-04T23:21:05.548Z,19.20
2018-07-04T23:23:44.378Z,19.10
2018-07-04T23:26:23.316Z,19.00
2018-07-04T23:29:02.285Z,18.80
2018-07-04T23:31:41.274Z,18.70
2018-07-04T23:34:20.490Z,18.80
2018-07-04T23:36:59.382Z,18.70
2018-07-04T23:39:38.470Z,18.80
2018-07-04T23:42:17.430Z,18.80
2018-07-04T23:44:56.294Z,18.70
2018-07-04T23:47:35.290Z,18.60
2018-07-04T23:50:14.278Z,18.50
2018-07-04T23:52:53.144Z,18.50
2018-07-04T23:55:31.891Z,18.50
2018-07-04T23:58:10.976Z,18.40
